createdAt,value
2019-03-05T00:02:16.493Z,24.90
2019-03-05T00:04:50.175Z,28.25
2019-03-05T00:07:22.225Z,27.87
2019-03-05T00:09:54.214Z,23.07
2019-03-05T00:12:26.055Z,23.05
2019-03-05T00:14:57.988Z,20.97
2019-03-05T00:17:29.883Z,21.50
2019-03-05T00:20:03.455Z,21.33
2019-03-05T00:22:35.345Z,21.65
2019-03-05T00:25:12.860Z,21.10
2019-03-05T00:28:11.481Z,22.05
2019-03-05T00:30:50.089Z,20.97
2019-03-05T00:33:27.799Z,21.07
2019-03-05T00:36:12.399Z,21.05
2019-03-05T00:39:13.334Z,22.10
2019-03-05T00:42:16.539Z,21.55
2019-03-05T00:45:17.296Z,21.00
2019-03-05T00:48:35.001Z,20.88
2019-03-05T00:51:55.939Z,19.85
2019-03-05T00:55:04.408Z,18.27
2019-03-05T00:58:07.314Z,18.57
2019-03-05T01:00:49.364Z,18.82
2019-03-05T01:04:02.462Z,19.42
2019-03-05T01:06:34.850Z,17.67
2019-03-05T01:09:15.330Z,17.82
2019-03-05T01:11:48.354Z,19.27
2019-03-05T01:14:24.454Z,18.67
2019-03-05T01:16:56.335Z,19.37
2019-03-05T01:19:28.210Z,19.82
2019-03-05T01:22:00.083Z,18.35
2019-03-05T01:24:33.213Z,19.07
2019-03-05T01:27:05.926Z,18.40
2019-03-05T01:29:38.059Z,18.57
2019-03-05T01:32:29.064Z,18.32
2019-03-05T01:35:18.854Z,20.08
2019-03-05T01:37:50.740Z,20.52
2019-03-05T01:40:53.155Z,21.48
2019-03-05T01:43:24.982Z,22.13
2019-03-05T01:45:56.817Z,22.60
2019-03-05T01:48:28.724Z,21.20
2019-03-05T01:51:00.729Z,21.17
2019-03-05T01:53:32.900Z,21.93
2019-03-05T01:56:07.037Z,22.77
2019-03-05T01:58:39.110Z,20.97
2019-03-05T02:01:11.236Z,20.68
2019-03-05T02:03:43.133Z,22.05
2019-03-05T02:06:17.011Z,19.30
2019-03-05T02:08:48.873Z,19.62
2019-03-05T02:11:21.191Z,19.12
2019-03-05T02:13:53.335Z,17.70
2019-03-05T02:16:25.170Z,17.25
2019-03-05T02:19:35.274Z,17.70
2019-03-05T02:22:30.361Z,17.73
2019-03-05T02:25:21.748Z,19.32
2019-03-05T02:28:20.338Z,18.77
2019-03-05T02:31:42.146Z,19.92
2019-03-05T02:34:49.401Z,19.20
2019-03-05T02:38:20.187Z,19.98
2019-03-05T02:41:23.093Z,19.87
2019-03-05T02:44:21.653Z,17.92
2019-03-05T02:47:17.127Z,19.20
2019-03-05T02:50:30.279Z,18.73
2019-03-05T02:53:26.877Z,18.98
2019-03-05T02:56:31.825Z,18.32
2019-03-05T02:59:02.799Z,19.62
2019-03-05T03:01:53.511Z,21.00
2019-03-05T03:04:30.510Z,19.20
2019-03-05T03:07:03.602Z,17.42
2019-03-05T03:10:13.624Z,18.82
2019-03-05T03:12:45.812Z,19.77
2019-03-05T03:15:19.168Z,17.80
2019-03-05T03:17:51.920Z,16.55
2019-03-05T03:20:24.830Z,16.85
2019-03-05T03:22:56.637Z,16.12
2019-03-05T03:25:30.048Z,15.60
2019-03-05T03:28:04.321Z,15.53
2019-03-05T03:30:36.501Z,9.60
2019-03-05T03:33:08.408Z,9.98
2019-03-05T03:35:42.977Z,11.35
2019-03-05T03:38:15.778Z,8.58
2019-03-05T03:40:47.620Z,7.25
2019-03-05T03:43:19.739Z,6.40
2019-03-05T03:45:51.695Z,5.87
2019-03-05T03:48:23.533Z,5.85
2019-03-05T03:50:58.039Z,5.65
2019-03-05T03:53:29.886Z,5.92
2019-03-05T03:56:01.733Z,5.05
2019-03-05T03:58:36.151Z,5.30
2019-03-05T04:01:08.453Z,5.62
2019-03-05T04:03:40.618Z,6.97
2019-03-05T04:06:12.579Z,6.67
2019-03-05T04:08:46.149Z,6.30
2019-03-05T04:11:18.020Z,6.05
2019-03-05T04:13:49.883Z,6.28
2019-03-05T04:16:21.881Z,4.97
2019-03-05T04:18:53.862Z,5.42
2019-03-05T04:21:25.679Z,4.65
2019-03-05T04:23:59.658Z,4.83
2019-03-05T04:26:31.632Z,5.47
2019-03-05T04:29:03.540Z,4.90
2019-03-05T04:31:35.384Z,4.70
2019-03-05T04:34:08.929Z,4.75
2019-03-05T04:36:41.561Z,5.58
2019-03-05T04:39:15.757Z,4.90
2019-03-05T04:41:47.668Z,5.15
2019-03-05T04:44:27.772Z,4.35
2019-03-05T04:46:59.597Z,4.85
2019-03-05T04:49:38.210Z,5.45
2019-03-05T04:52:13.419Z,5.12
2019-03-05T04:54:45.225Z,5.05
2019-03-05T04:57:17.152Z,5.17
2019-03-05T04:59:48.956Z,5.20
2019-03-05T05:02:22.426Z,5.08
2019-03-05T05:04:54.553Z,5.33
2019-03-05T05:07:26.732Z,5.78
2019-03-05T05:09:58.761Z,5.42
2019-03-05T05:12:30.624Z,5.80
2019-03-05T05:15:02.538Z,5.25
2019-03-05T05:17:36.688Z,5.28
2019-03-05T05:20:08.606Z,4.95
2019-03-05T05:22:40.425Z,5.87
2019-03-05T05:25:12.286Z,5.60
2019-03-05T05:27:46.316Z,5.65
2019-03-05T05:30:38.189Z,4.83
2019-03-05T05:33:10.078Z,5.35
2019-03-05T05:35:44.871Z,5.00
2019-03-05T05:38:16.910Z,5.28
2019-03-05T05:40:48.734Z,5.80
2019-03-05T05:43:28.528Z,5.55
2019-03-05T05:46:00.385Z,5.83
2019-03-05T05:48:32.207Z,5.58
2019-03-05T05:51:04.056Z,5.70
2019-03-05T05:53:36.263Z,5.65
2019-03-05T05:56:08.057Z,5.45
2019-03-05T05:58:41.518Z,4.95
2019-03-05T06:01:13.927Z,5.15
2019-03-05T06:03:45.816Z,5.00
2019-03-05T06:06:17.657Z,5.72
2019-03-05T06:08:50.007Z,5.70
2019-03-05T06:11:21.869Z,6.10
2019-03-05T06:13:53.695Z,5.90
2019-03-05T06:16:25.527Z,5.95
2019-03-05T06:18:57.388Z,5.20
2019-03-05T06:21:29.249Z,5.85
2019-03-05T06:24:01.073Z,6.67
2019-03-05T06:26:33.943Z,6.33
2019-03-05T06:29:05.904Z,6.12
2019-03-05T06:31:38.168Z,5.58
2019-03-05T06:34:10.327Z,5.45
2019-03-05T06:36:56.565Z,5.35
2019-03-05T06:39:28.747Z,5.40
2019-03-05T06:42:01.363Z,6.50
2019-03-05T06:44:34.683Z,6.12
2019-03-05T06:47:06.537Z,4.47
2019-03-05T06:49:38.343Z,5.15
2019-03-05T06:52:11.800Z,5.53
2019-03-05T06:54:47.556Z,4.42
2019-03-05T06:57:24.528Z,5.00
2019-03-05T06:59:56.381Z,4.90
2019-03-05T07:02:28.213Z,5.42
2019-03-05T07:05:00.323Z,4.72
2019-03-05T07:07:33.094Z,4.67
2019-03-05T07:10:28.526Z,4.28
2019-03-05T07:13:12.501Z,4.95
2019-03-05T07:16:13.349Z,4.12
2019-03-05T07:19:08.038Z,4.95
2019-03-05T07:22:08.573Z,4.80
2019-03-05T07:24:39.607Z,4.75
2019-03-05T07:27:14.389Z,4.05
2019-03-05T07:29:46.205Z,4.25
2019-03-05T07:32:19.112Z,3.60
2019-03-05T07:34:52.682Z,3.80
2019-03-05T07:37:27.026Z,3.92
2019-03-05T07:39:58.818Z,5.08
2019-03-05T07:42:30.668Z,5.30
2019-03-05T07:45:02.535Z,3.95
2019-03-05T07:47:35.658Z,4.30
2019-03-05T07:50:07.781Z,4.03
2019-03-05T07:52:39.593Z,3.90
2019-03-05T07:55:14.307Z,4.03
2019-03-05T07:57:49.549Z,4.45
2019-03-05T08:00:22.422Z,3.50
2019-03-05T08:02:56.130Z,3.83
2019-03-05T08:05:27.943Z,4.08
2019-03-05T08:08:36.084Z,4.15
2019-03-05T08:11:07.879Z,3.80
2019-03-05T08:14:31.340Z,4.90
2019-03-05T08:17:05.893Z,4.30
2019-03-05T08:19:39.361Z,5.10
2019-03-05T08:22:11.219Z,7.35
2019-03-05T08:24:43.132Z,7.53
2019-03-05T08:27:14.954Z,5.75
2019-03-05T08:29:48.589Z,5.47
2019-03-05T08:32:21.856Z,4.28
2019-03-05T08:34:54.179Z,4.22
2019-03-05T08:37:26.090Z,5.50
2019-03-05T08:39:58.269Z,4.55
2019-03-05T08:42:31.388Z,4.55
2019-03-05T08:45:04.401Z,4.92
2019-03-05T08:47:36.329Z,4.45
2019-03-05T08:50:11.605Z,4.53
2019-03-05T08:52:45.137Z,3.95
2019-03-05T08:55:17.147Z,4.70
2019-03-05T08:57:49.075Z,4.65
2019-03-05T09:00:21.187Z,4.78
2019-03-05T09:02:55.789Z,4.90
2019-03-05T09:05:27.612Z,4.70
2019-03-05T09:07:59.503Z,4.42
2019-03-05T09:10:31.719Z,3.12
2019-03-05T09:13:04.816Z,2.90
2019-03-05T09:15:37.035Z,3.10
2019-03-05T09:18:11.379Z,2.77
2019-03-05T09:20:43.486Z,3.50
2019-03-05T09:23:15.338Z,3.65
2019-03-05T09:25:47.533Z,3.92
2019-03-05T09:28:19.766Z,3.15
2019-03-05T09:30:51.566Z,3.27
2019-03-05T09:33:25.447Z,2.92
2019-03-05T09:35:57.267Z,3.40
2019-03-05T09:38:30.105Z,3.45
2019-03-05T09:41:02.382Z,3.92
2019-03-05T09:43:37.022Z,3.37
2019-03-05T09:46:08.807Z,4.15
2019-03-05T09:48:41.134Z,2.92
2019-03-05T09:51:13.003Z,3.10
2019-03-05T09:53:44.860Z,3.15
2019-03-05T09:56:16.737Z,3.80
2019-03-05T09:58:51.736Z,3.50
2019-03-05T10:01:23.984Z,4.03
2019-03-05T10:03:57.415Z,4.25
2019-03-05T10:06:29.600Z,3.60
2019-03-05T10:09:01.458Z,5.17
2019-03-05T10:11:34.821Z,3.67
2019-03-05T10:14:07.830Z,4.17
2019-03-05T10:16:39.676Z,3.77
2019-03-05T10:19:11.936Z,2.77
2019-03-05T10:21:46.510Z,4.22
2019-03-05T10:24:18.329Z,4.25
2019-03-05T10:26:52.387Z,4.62
2019-03-05T10:29:24.289Z,3.90
2019-03-05T10:31:57.447Z,3.30
2019-03-05T10:34:29.239Z,6.80
2019-03-05T10:37:12.368Z,7.42
2019-03-05T10:39:35.869Z,5.47
2019-03-05T10:42:07.811Z,6.50
2019-03-05T10:44:40.108Z,5.58
2019-03-05T10:47:12.201Z,4.25
2019-03-05T10:49:44.043Z,4.17
2019-03-05T10:52:16.764Z,4.40
2019-03-05T10:54:48.859Z,4.60
2019-03-05T10:57:22.693Z,3.85
2019-03-05T10:59:55.924Z,3.10
2019-03-05T11:02:29.400Z,5.95
2019-03-05T11:05:05.063Z,3.72
2019-03-05T11:07:37.126Z,3.27
2019-03-05T11:10:10.453Z,4.62
2019-03-05T11:12:42.694Z,2.90
2019-03-05T11:15:20.788Z,3.10
2019-03-05T11:17:54.195Z,3.02
2019-03-05T11:20:26.404Z,6.50
2019-03-05T11:22:58.259Z,5.53
2019-03-05T11:25:31.358Z,4.58
2019-03-05T11:28:03.692Z,5.17
2019-03-05T11:30:36.635Z,5.50
2019-03-05T11:33:08.833Z,4.10
2019-03-05T11:35:40.694Z,4.08
2019-03-05T11:38:13.621Z,3.42
2019-03-05T11:40:47.710Z,3.70
2019-03-05T11:43:21.227Z,3.15
2019-03-05T11:45:53.092Z,3.70
2019-03-05T11:48:25.001Z,3.72
2019-03-05T11:50:56.822Z,5.75
2019-03-05T11:53:28.652Z,4.62
2019-03-05T11:56:00.456Z,5.10
2019-03-05T11:58:35.087Z,4.28
2019-03-05T12:01:27.566Z,4.12
2019-03-05T12:03:59.472Z,3.80
2019-03-05T12:06:31.436Z,3.80
2019-03-05T12:09:05.911Z,4.10
2019-03-05T12:11:39.016Z,4.47
2019-03-05T12:14:10.860Z,5.17
2019-03-05T12:16:44.489Z,4.35
2019-03-05T12:19:16.411Z,3.83
2019-03-05T12:21:48.296Z,4.33
2019-03-05T12:24:24.215Z,3.85
2019-03-05T12:26:54.563Z,3.80
2019-03-05T12:29:28.511Z,4.83
2019-03-05T12:32:02.701Z,3.83
2019-03-05T12:34:45.883Z,3.72
2019-03-05T12:37:21.214Z,4.12
2019-03-05T12:39:55.209Z,3.33
2019-03-05T12:42:29.581Z,3.33
2019-03-05T12:45:09.316Z,2.60
2019-03-05T12:47:42.865Z,2.22
2019-03-05T12:50:22.245Z,2.40
2019-03-05T12:52:55.836Z,3.95
2019-03-05T12:55:29.985Z,2.87
2019-03-05T12:58:06.586Z,2.75
2019-03-05T13:00:40.076Z,3.17
2019-03-05T13:03:14.715Z,3.62
2019-03-05T13:05:52.388Z,2.70
2019-03-05T13:08:28.785Z,2.50
2019-03-05T13:11:00.916Z,2.90
2019-03-05T13:13:37.336Z,2.72
2019-03-05T13:16:09.136Z,2.27
2019-03-05T13:18:47.525Z,1.90
2019-03-05T13:21:21.706Z,1.90
2019-03-05T13:23:53.821Z,1.80
2019-03-05T13:26:25.937Z,1.90
2019-03-05T13:28:57.682Z,1.70
2019-03-05T13:31:29.551Z,1.35
2019-03-05T13:34:02.498Z,1.40
2019-03-05T13:36:34.733Z,1.42
2019-03-05T13:39:07.953Z,1.82
2019-03-05T13:41:41.363Z,1.42
2019-03-05T13:44:35.961Z,1.50
2019-03-05T13:47:09.393Z,1.40
2019-03-05T13:50:31.072Z,1.92
2019-03-05T13:53:30.375Z,1.37
2019-03-05T13:56:53.436Z,1.85
2019-03-05T13:59:46.744Z,1.32
2019-03-05T14:02:25.254Z,1.90
2019-03-05T14:05:21.148Z,1.30
2019-03-05T14:08:36.661Z,1.52
2019-03-05T14:11:09.670Z,1.35
2019-03-05T14:13:42.810Z,1.70
2019-03-05T14:16:17.408Z,1.32
2019-03-05T14:18:49.273Z,1.45
2019-03-05T14:21:21.534Z,1.50
2019-03-05T14:23:53.411Z,1.50
2019-03-05T14:26:27.169Z,1.30
2019-03-05T14:28:59.109Z,1.57
2019-03-05T14:31:31.331Z,1.25
2019-03-05T14:34:03.709Z,1.72
2019-03-05T14:36:38.628Z,2.27
2019-03-05T14:39:34.138Z,1.90
2019-03-05T14:42:08.386Z,1.72
2019-03-05T14:44:41.952Z,2.42
2019-03-05T14:47:13.919Z,2.55
2019-03-05T14:49:47.338Z,2.40
2019-03-05T14:52:20.157Z,2.08
2019-03-05T14:54:52.999Z,1.85
2019-03-05T14:57:24.781Z,1.98
2019-03-05T14:59:56.581Z,2.12
2019-03-05T15:02:31.416Z,1.72
2019-03-05T15:05:05.775Z,2.40
2019-03-05T15:07:38.073Z,2.22
2019-03-05T15:10:10.264Z,2.25
2019-03-05T15:12:42.314Z,3.20
2019-03-05T15:15:21.316Z,3.02
2019-03-05T15:17:53.468Z,3.02
2019-03-05T15:20:26.881Z,3.35
2019-03-05T15:22:59.109Z,3.40
2019-03-05T15:25:31.063Z,3.15
2019-03-05T15:28:05.157Z,3.15
2019-03-05T15:30:36.993Z,3.25
2019-03-05T15:33:08.998Z,3.35
2019-03-05T15:35:41.197Z,3.25
2019-03-05T15:38:13.647Z,2.90
2019-03-05T15:40:45.480Z,3.00
2019-03-05T15:43:19.392Z,2.00
2019-03-05T15:45:51.246Z,2.67
2019-03-05T15:48:23.390Z,2.37
2019-03-05T15:50:56.867Z,2.72
2019-03-05T15:53:30.610Z,4.40
2019-03-05T15:56:02.853Z,3.08
2019-03-05T15:58:35.158Z,4.37
2019-03-05T16:01:09.729Z,5.50
2019-03-05T16:03:40.801Z,4.75
2019-03-05T16:06:14.428Z,4.55
2019-03-05T16:08:47.429Z,4.58
2019-03-05T16:11:19.197Z,5.00
2019-03-05T16:13:52.408Z,2.20
2019-03-05T16:16:26.451Z,2.50
2019-03-05T16:19:03.942Z,2.17
2019-03-05T16:21:41.211Z,2.20
2019-03-05T16:24:10.612Z,2.58
2019-03-05T16:26:43.274Z,2.72
2019-03-05T16:29:16.325Z,2.50
2019-03-05T16:31:56.115Z,2.80
2019-03-05T16:34:37.066Z,2.90
2019-03-05T16:37:43.797Z,3.15
2019-03-05T16:40:36.378Z,3.72
2019-03-05T16:43:22.470Z,3.85
2019-03-05T16:46:02.791Z,4.22
2019-03-05T16:48:53.651Z,3.62
2019-03-05T16:51:44.556Z,3.12
2019-03-05T16:54:35.327Z,2.55
2019-03-05T16:57:23.177Z,2.85
2019-03-05T17:00:20.125Z,2.10
2019-03-05T17:03:05.883Z,2.35
2019-03-05T17:05:56.693Z,2.25
2019-03-05T17:08:53.729Z,2.50
2019-03-05T17:11:34.503Z,2.10
2019-03-05T17:14:06.394Z,2.33
2019-03-05T17:16:38.288Z,1.90
2019-03-05T17:19:13.208Z,2.17
2019-03-05T17:21:45.077Z,2.55
2019-03-05T17:24:17.112Z,2.20
2019-03-05T17:26:48.940Z,1.72
2019-03-05T17:29:20.840Z,2.10
2019-03-05T17:31:59.613Z,2.27
2019-03-05T17:34:31.574Z,2.67
2019-03-05T17:37:03.511Z,2.60
2019-03-05T17:39:35.319Z,2.60
2019-03-05T17:42:07.158Z,2.72
2019-03-05T17:44:39.001Z,2.95
2019-03-05T17:47:10.816Z,2.80
2019-03-05T17:49:44.393Z,2.22
2019-03-05T17:52:16.332Z,2.58
2019-03-05T17:54:49.363Z,2.22
2019-03-05T17:57:22.904Z,1.70
2019-03-05T17:59:54.727Z,3.02
2019-03-05T18:02:26.859Z,2.20
2019-03-05T18:05:00.319Z,2.52
2019-03-05T18:07:34.613Z,2.22
2019-03-05T18:10:07.301Z,2.10
2019-03-05T18:12:39.951Z,2.45
2019-03-05T18:15:14.016Z,2.27
2019-03-05T18:17:45.995Z,1.87
2019-03-05T18:20:18.393Z,2.20
2019-03-05T18:22:51.097Z,2.75
2019-03-05T18:25:24.316Z,1.67
2019-03-05T18:27:57.803Z,2.30
2019-03-05T18:30:29.852Z,2.37
2019-03-05T18:33:02.052Z,2.50
2019-03-05T18:35:34.582Z,2.67
2019-03-05T18:38:06.611Z,2.05
2019-03-05T18:40:39.044Z,2.60
2019-03-05T18:43:11.150Z,2.12
2019-03-05T18:45:43.126Z,2.20
2019-03-05T18:48:14.988Z,2.52
2019-03-05T18:50:47.144Z,2.17
2019-03-05T18:53:19.244Z,2.30
2019-03-05T18:55:51.168Z,1.90
2019-03-05T18:58:25.040Z,1.70
2019-03-05T19:00:56.924Z,1.50
2019-03-05T19:03:28.986Z,2.35
2019-03-05T19:06:00.877Z,2.30
2019-03-05T19:08:32.762Z,2.15
2019-03-05T19:11:05.309Z,2.33
2019-03-05T19:13:37.339Z,1.85
2019-03-05T19:16:09.425Z,2.27
2019-03-05T19:18:43.047Z,2.60
2019-03-05T19:21:15.329Z,2.20
2019-03-05T19:23:47.226Z,1.95
2019-03-05T19:26:19.289Z,2.27
2019-03-05T19:28:51.137Z,2.00
2019-03-05T19:31:23.157Z,2.37
2019-03-05T19:33:56.874Z,1.45
2019-03-05T19:36:28.990Z,1.40
2019-03-05T19:39:00.831Z,2.02
2019-03-05T19:41:37.642Z,1.47
2019-03-05T19:44:12.619Z,1.87
2019-03-05T19:46:45.783Z,1.72
2019-03-05T19:49:19.994Z,1.77
2019-03-05T19:51:52.058Z,1.67
2019-03-05T19:54:23.993Z,1.62
2019-03-05T19:56:58.607Z,1.80
2019-03-05T19:59:30.964Z,1.80
2019-03-05T20:02:03.437Z,2.30
2019-03-05T20:04:35.461Z,2.95
2019-03-05T20:07:07.384Z,1.62
2019-03-05T20:09:39.454Z,3.12
2019-03-05T20:12:13.811Z,1.55
2019-03-05T20:14:45.836Z,1.70
2019-03-05T20:17:20.947Z,1.60
2019-03-05T20:19:54.315Z,1.62
2019-03-05T20:22:26.296Z,1.50
2019-03-05T20:24:58.260Z,1.80
2019-03-05T20:27:31.803Z,2.20
2019-03-05T20:30:03.875Z,2.10
2019-03-05T20:32:36.806Z,1.87
2019-03-05T20:35:10.535Z,1.75
2019-03-05T20:37:46.814Z,2.22
2019-03-05T20:40:19.601Z,1.87
2019-03-05T20:42:54.459Z,2.20
2019-03-05T20:45:29.822Z,2.10
2019-03-05T20:48:01.854Z,1.72
2019-03-05T20:50:34.256Z,2.08
2019-03-05T20:53:06.403Z,1.90
2019-03-05T20:55:38.286Z,2.20
2019-03-05T20:58:10.412Z,1.92
2019-03-05T21:00:42.838Z,2.25
2019-03-05T21:03:15.038Z,2.17
2019-03-05T21:05:47.173Z,2.00
2019-03-05T21:08:19.117Z,2.20
2019-03-05T21:10:51.800Z,1.92
2019-03-05T21:13:24.160Z,1.82
2019-03-05T21:15:56.171Z,2.10
2019-03-05T21:18:28.257Z,1.90
2019-03-05T21:21:00.360Z,2.08
2019-03-05T21:23:32.483Z,1.70
2019-03-05T21:26:04.533Z,1.80
2019-03-05T21:28:39.730Z,1.47
2019-03-05T21:31:12.468Z,1.40
2019-03-05T21:33:44.401Z,1.62
2019-03-05T21:36:16.770Z,1.27
2019-03-05T21:38:48.701Z,1.12
2019-03-05T21:41:23.334Z,1.72
2019-03-05T21:43:55.748Z,0.85
2019-03-05T21:46:27.710Z,1.20
2019-03-05T21:48:59.982Z,1.20
2019-03-05T21:51:34.662Z,1.32
2019-03-05T21:54:07.195Z,0.80
2019-03-05T21:56:40.235Z,1.17
2019-03-05T21:59:12.141Z,0.98
2019-03-05T22:01:44.075Z,1.12
2019-03-05T22:04:16.094Z,0.90
2019-03-05T22:06:50.624Z,1.05
2019-03-05T22:09:25.591Z,1.50
2019-03-05T22:12:00.574Z,1.50
2019-03-05T22:14:33.804Z,1.10
2019-03-05T22:17:08.335Z,0.93
2019-03-05T22:19:42.334Z,0.62
2019-03-05T22:22:17.510Z,0.93
2019-03-05T22:24:49.299Z,0.82
2019-03-05T22:27:21.223Z,0.90
2019-03-05T22:29:53.119Z,4.22
2019-03-05T22:32:25.115Z,16.67
2019-03-05T22:34:57.943Z,5.30
2019-03-05T22:37:29.875Z,1.15
2019-03-05T22:40:01.832Z,1.47
2019-03-05T22:42:34.956Z,0.80
2019-03-05T22:45:08.026Z,1.05
2019-03-05T22:47:40.090Z,1.27
2019-03-05T22:50:12.101Z,1.15
2019-03-05T22:52:44.051Z,1.17
2019-03-05T22:55:15.895Z,1.32
2019-03-05T22:57:47.917Z,1.10
2019-03-05T23:01:01.191Z,0.90
2019-03-05T23:03:36.346Z,0.95
2019-03-05T23:06:10.152Z,0.80
2019-03-05T23:08:50.047Z,1.42
2019-03-05T23:11:22.552Z,0.98
2019-03-05T23:13:58.637Z,0.80
2019-03-05T23:16:30.462Z,0.98
2019-03-05T23:19:05.058Z,1.55
2019-03-05T23:21:38.023Z,0.93
2019-03-05T23:24:10.136Z,0.80
2019-03-05T23:26:41.917Z,0.50
2019-03-05T23:29:20.673Z,0.50
2019-03-05T23:31:55.096Z,0.60
2019-03-05T23:34:27.419Z,0.62
2019-03-05T23:36:59.756Z,0.65
2019-03-05T23:39:33.918Z,0.65
2019-03-05T23:42:05.881Z,0.90
2019-03-05T23:44:40.242Z,0.90
2019-03-05T23:47:12.906Z,1.07
2019-03-05T23:49:44.806Z,1.17
2019-03-05T23:52:16.640Z,0.88
2019-03-05T23:54:48.435Z,0.93
2019-03-05T23:57:20.272Z,1.12
2019-03-05T23:59:52.278Z,0.90
